createdAt,value
2022-09-28T00:00:59.634Z,7.40
2022-09-28T00:03:28.083Z,7.50
2022-09-28T00:06:02.197Z,6.77
2022-09-28T00:08:30.443Z,7.20
2022-09-28T00:10:58.718Z,7.43
2022-09-28T00:13:28.371Z,7.33
2022-09-28T00:16:07.345Z,7.53
2022-09-28T00:18:36.064Z,8.00
2022-09-28T00:21:05.676Z,7.93
2022-09-28T00:23:34.313Z,7.83
2022-09-28T00:26:06.347Z,7.33
2022-09-28T00:28:35.874Z,6.87
2022-09-28T00:31:04.108Z,7.63
2022-09-28T00:33:32.332Z,7.33
2022-09-28T00:36:00.653Z,7.83
2022-09-28T00:38:29.899Z,7.77
2022-09-28T00:40:59.677Z,7.77
2022-09-28T00:43:28.257Z,7.33
2022-09-28T00:46:00.888Z,7.47
2022-09-28T00:48:31.048Z,8.00
2022-09-28T00:51:01.275Z,7.80
2022-09-28T00:53:32.424Z,7.17
2022-09-28T00:56:03.574Z,7.97
2022-09-28T00:58:33.693Z,8.40
2022-09-28T01:01:03.292Z,8.70
2022-09-28T01:03:31.824Z,9.17
2022-09-28T01:06:01.701Z,9.03
2022-09-28T01:08:32.188Z,9.10
2022-09-28T01:11:00.920Z,8.90
2022-09-28T01:13:29.420Z,8.90
2022-09-28T01:16:00.759Z,9.30
2022-09-28T01:18:33.650Z,10.43
2022-09-28T01:21:03.292Z,10.07
2022-09-28T01:23:49.337Z,11.00
2022-09-28T01:26:28.773Z,10.07
2022-09-28T01:29:01.294Z,10.00
2022-09-28T01:31:32.928Z,10.73
2022-09-28T01:34:02.771Z,10.70
2022-09-28T01:36:34.741Z,10.07
2022-09-28T01:39:04.381Z,10.53
2022-09-28T01:41:38.038Z,10.07
2022-09-28T01:44:08.721Z,9.50
2022-09-28T01:46:39.258Z,8.77
2022-09-28T01:49:10.344Z,8.80
2022-09-28T01:51:49.417Z,8.30
2022-09-28T01:54:21.192Z,8.70
2022-09-28T01:56:53.190Z,8.17
2022-09-28T01:59:24.522Z,8.63
2022-09-28T02:01:54.676Z,9.30
2022-09-28T02:04:24.856Z,9.33
2022-09-28T02:06:55.359Z,8.97
2022-09-28T02:09:25.065Z,9.53
2022-09-28T02:11:58.977Z,8.63
2022-09-28T02:14:28.119Z,9.50
2022-09-28T02:16:57.422Z,9.03
2022-09-28T02:19:27.380Z,9.33
2022-09-28T02:21:57.743Z,9.27
2022-09-28T02:24:28.903Z,8.77
2022-09-28T02:27:01.144Z,9.37
2022-09-28T02:29:29.503Z,8.80
2022-09-28T02:31:57.867Z,9.57
2022-09-28T02:34:26.187Z,9.73
2022-09-28T02:36:54.352Z,9.73
2022-09-28T02:39:22.541Z,9.73
2022-09-28T02:41:56.662Z,9.53
2022-09-28T02:44:39.689Z,9.33
2022-09-28T02:47:18.024Z,9.10
2022-09-28T02:49:48.746Z,9.47
2022-09-28T02:52:22.029Z,9.73
2022-09-28T02:54:58.202Z,10.30
2022-09-28T02:57:33.184Z,9.90
2022-09-28T03:00:08.426Z,10.17
2022-09-28T03:02:42.668Z,10.43
2022-09-28T03:05:20.529Z,10.07
2022-09-28T03:07:52.301Z,10.23
2022-09-28T03:10:24.965Z,10.70
2022-09-28T03:12:53.895Z,11.30
2022-09-28T03:15:23.488Z,10.67
2022-09-28T03:17:53.172Z,11.30
2022-09-28T03:20:21.420Z,11.50
2022-09-28T03:23:12.367Z,11.70
2022-09-28T03:25:37.740Z,11.60
2022-09-28T03:28:05.879Z,11.30
2022-09-28T03:30:34.108Z,11.47
2022-09-28T03:33:04.296Z,11.93
2022-09-28T03:35:32.465Z,11.80
2022-09-28T03:38:00.701Z,11.50
2022-09-28T03:40:28.906Z,11.70
2022-09-28T03:42:57.131Z,12.07
2022-09-28T03:45:25.468Z,11.60
2022-09-28T03:47:53.706Z,11.97
2022-09-28T03:50:23.239Z,11.80
2022-09-28T03:52:51.461Z,11.80
2022-09-28T03:55:19.648Z,12.97
2022-09-28T03:57:54.344Z,12.50
2022-09-28T04:00:22.960Z,12.87
2022-09-28T04:02:51.141Z,13.20
2022-09-28T04:05:19.356Z,12.60
2022-09-28T04:07:48.940Z,12.27
2022-09-28T04:10:17.279Z,14.00
2022-09-28T04:12:45.896Z,12.93
2022-09-28T04:15:14.878Z,14.53
2022-09-28T04:17:43.073Z,14.13
2022-09-28T04:20:11.293Z,13.70
2022-09-28T04:22:39.698Z,13.27
2022-09-28T04:25:09.990Z,12.70
2022-09-28T04:27:55.836Z,13.70
2022-09-28T04:30:24.843Z,13.40
2022-09-28T04:32:53.074Z,12.53
2022-09-28T04:35:21.482Z,14.03
2022-09-28T04:37:49.674Z,13.50
2022-09-28T04:40:19.281Z,12.97
2022-09-28T04:42:54.460Z,12.87
2022-09-28T04:45:22.626Z,13.47
2022-09-28T04:47:50.791Z,13.43
2022-09-28T04:50:19.015Z,14.43
2022-09-28T04:52:47.179Z,13.93
2022-09-28T04:55:15.473Z,13.90
2022-09-28T04:57:44.985Z,14.13
2022-09-28T05:00:13.811Z,15.07
2022-09-28T05:02:42.072Z,12.93
2022-09-28T05:05:10.587Z,14.03
2022-09-28T05:07:39.043Z,13.60
2022-09-28T05:10:07.493Z,13.80
2022-09-28T05:12:35.663Z,13.53
2022-09-28T05:15:05.351Z,14.20
2022-09-28T05:17:33.509Z,13.83
2022-09-28T05:20:02.889Z,13.77
2022-09-28T05:23:18.983Z,14.40
2022-09-28T05:26:15.029Z,14.40
2022-09-28T05:29:02.846Z,13.47
2022-09-28T05:31:39.079Z,13.97
2022-09-28T05:34:10.020Z,14.43
2022-09-28T05:36:44.884Z,14.23
2022-09-28T05:39:13.370Z,13.93
2022-09-28T05:41:42.009Z,15.27
2022-09-28T05:44:10.515Z,15.17
2022-09-28T05:46:40.582Z,15.57
2022-09-28T05:49:09.039Z,14.83
2022-09-28T05:51:38.385Z,14.70
2022-09-28T05:54:06.872Z,15.37
2022-09-28T05:56:35.248Z,14.97
2022-09-28T05:59:05.478Z,15.70
2022-09-28T06:01:34.368Z,14.80
2022-09-28T06:04:04.607Z,14.83
2022-09-28T06:06:33.040Z,15.10
2022-09-28T06:09:01.746Z,15.00
2022-09-28T06:11:30.373Z,16.50
2022-09-28T06:13:58.754Z,15.57
2022-09-28T06:16:27.214Z,15.37
2022-09-28T06:18:55.790Z,15.47
2022-09-28T06:21:25.755Z,17.40
2022-09-28T06:23:54.587Z,15.93
2022-09-28T06:26:22.915Z,16.10
2022-09-28T06:28:51.561Z,15.07
2022-09-28T06:31:23.813Z,15.20
2022-09-28T06:33:52.988Z,16.13
2022-09-28T06:36:22.719Z,15.93
2022-09-28T06:38:52.991Z,16.47
2022-09-28T06:41:21.559Z,16.33
2022-09-28T06:43:50.101Z,16.83
2022-09-28T06:46:18.778Z,16.47
2022-09-28T06:48:47.199Z,17.17
2022-09-28T06:51:15.719Z,16.07
2022-09-28T06:53:44.429Z,17.13
2022-09-28T06:56:14.279Z,17.00
2022-09-28T06:58:42.742Z,16.13
2022-09-28T07:01:12.144Z,15.83
2022-09-28T07:03:40.691Z,16.37
2022-09-28T07:06:13.203Z,15.27
2022-09-28T07:08:41.721Z,15.90
2022-09-28T07:11:10.357Z,16.50
2022-09-28T07:13:56.000Z,16.33
2022-09-28T07:16:28.654Z,15.60
2022-09-28T07:19:00.903Z,13.77
2022-09-28T07:21:31.208Z,14.40
2022-09-28T07:24:00.321Z,14.43
2022-09-28T07:26:28.779Z,14.97
2022-09-28T07:28:59.032Z,14.13
2022-09-28T07:31:29.903Z,13.73
2022-09-28T07:33:58.785Z,13.50
2022-09-28T07:36:27.304Z,14.03
2022-09-28T07:38:55.749Z,13.63
2022-09-28T07:41:32.781Z,12.77
2022-09-28T07:44:06.285Z,13.03
2022-09-28T07:46:34.931Z,11.87
2022-09-28T07:49:08.396Z,11.60
2022-09-28T07:51:39.947Z,12.20
2022-09-28T07:54:08.938Z,11.37
2022-09-28T07:56:37.227Z,11.67
2022-09-28T07:59:07.207Z,11.67
2022-09-28T08:01:36.414Z,11.07
2022-09-28T08:04:05.009Z,11.07
2022-09-28T08:06:33.423Z,10.50
2022-09-28T08:09:01.881Z,11.73
2022-09-28T08:11:30.373Z,11.10
2022-09-28T08:14:00.263Z,10.77
2022-09-28T08:16:32.597Z,11.17
2022-09-28T08:19:01.040Z,11.63
2022-09-28T08:21:46.834Z,12.47
2022-09-28T08:24:15.608Z,12.03
2022-09-28T08:26:44.085Z,11.63
2022-09-28T08:29:12.388Z,11.93
2022-09-28T08:31:42.026Z,11.43
2022-09-28T08:34:10.423Z,12.13
2022-09-28T08:36:39.405Z,11.30
2022-09-28T08:39:07.777Z,11.03
2022-09-28T08:41:41.078Z,11.63
2022-09-28T08:44:16.100Z,11.40
2022-09-28T08:46:47.742Z,10.97
2022-09-28T08:49:25.527Z,12.03
2022-09-28T08:52:01.366Z,11.50
2022-09-28T08:54:32.561Z,11.13
2022-09-28T08:57:03.110Z,10.83
2022-09-28T08:59:36.978Z,10.57
2022-09-28T09:02:06.706Z,9.77
2022-09-28T09:04:35.341Z,11.57
2022-09-28T09:07:21.473Z,11.03
2022-09-28T09:09:55.736Z,10.83
2022-09-28T09:12:31.332Z,10.30
2022-09-28T09:15:14.495Z,10.23
2022-09-28T09:17:49.898Z,9.40
2022-09-28T09:20:20.460Z,9.80
2022-09-28T09:22:53.465Z,9.70
2022-09-28T09:25:23.537Z,8.40
2022-09-28T09:28:12.497Z,7.87
2022-09-28T09:30:46.066Z,8.30
2022-09-28T09:33:33.672Z,7.77
2022-09-28T09:36:10.038Z,7.73
2022-09-28T09:38:43.521Z,8.17
2022-09-28T09:41:17.643Z,7.80
2022-09-28T09:43:55.933Z,8.27
2022-09-28T09:46:29.467Z,7.90
2022-09-28T09:49:01.319Z,7.70
2022-09-28T09:51:35.163Z,6.20
2022-09-28T09:54:05.422Z,6.50
2022-09-28T09:56:36.904Z,6.93
2022-09-28T09:59:08.142Z,5.97
2022-09-28T10:01:37.800Z,6.67
2022-09-28T10:04:10.292Z,6.73
2022-09-28T10:06:39.382Z,6.40
2022-09-28T10:09:11.490Z,6.10
2022-09-28T10:11:41.461Z,6.57
2022-09-28T10:14:10.398Z,6.17
2022-09-28T10:16:38.683Z,5.83
2022-09-28T10:19:10.487Z,6.53
2022-09-28T10:21:41.075Z,6.10
2022-09-28T10:24:12.709Z,6.40
2022-09-28T10:26:42.519Z,6.33
2022-09-28T10:29:14.685Z,5.00
2022-09-28T10:31:44.357Z,5.10
2022-09-28T10:34:15.145Z,5.07
2022-09-28T10:36:48.940Z,5.27
2022-09-28T10:39:30.167Z,4.50
2022-09-28T10:41:59.778Z,4.80
2022-09-28T10:44:30.685Z,5.10
2022-09-28T10:47:00.923Z,4.60
2022-09-28T10:49:33.476Z,4.90
2022-09-28T10:52:01.866Z,4.83
2022-09-28T10:54:31.221Z,3.87
2022-09-28T10:57:00.663Z,4.87
2022-09-28T10:59:39.670Z,4.47
2022-09-28T11:02:16.741Z,4.77
2022-09-28T11:04:51.971Z,4.50
2022-09-28T11:07:21.034Z,5.10
2022-09-28T11:09:50.541Z,4.50
2022-09-28T11:12:20.470Z,3.67
2022-09-28T11:14:52.770Z,3.90
2022-09-28T11:17:27.391Z,3.43
2022-09-28T11:19:57.387Z,4.10
2022-09-28T11:22:28.863Z,2.70
2022-09-28T11:25:11.956Z,3.47
2022-09-28T11:27:40.536Z,3.20
2022-09-28T11:30:22.607Z,3.50
2022-09-28T11:32:51.124Z,3.53
2022-09-28T11:35:22.329Z,3.70
2022-09-28T11:37:54.439Z,3.60
2022-09-28T11:40:29.577Z,3.13
2022-09-28T11:45:42.860Z,3.00
2022-09-28T11:48:12.367Z,3.20
2022-09-28T11:50:45.982Z,3.10
2022-09-28T11:53:18.358Z,3.90
2022-09-28T11:55:48.497Z,3.83
2022-09-28T11:58:19.746Z,3.33
2022-09-28T12:00:50.436Z,3.50
2022-09-28T12:03:20.490Z,3.57
2022-09-28T12:05:52.148Z,4.00
2022-09-28T12:08:25.319Z,4.40
2022-09-28T12:10:57.180Z,3.67
2022-09-28T12:13:27.908Z,3.80
2022-09-28T12:18:51.271Z,3.30
2022-09-28T12:21:42.571Z,3.00
2022-09-28T12:24:14.584Z,3.10
2022-09-28T12:26:45.763Z,3.20
2022-09-28T12:29:15.984Z,2.70
2022-09-28T12:31:49.872Z,2.67
2022-09-28T12:34:18.439Z,2.80
2022-09-28T12:36:54.592Z,3.10
2022-09-28T12:39:46.955Z,3.00
2022-09-28T12:42:27.568Z,2.40
2022-09-28T12:45:02.235Z,2.63
2022-09-28T12:47:40.221Z,2.40
2022-09-28T12:50:38.010Z,1.93
2022-09-28T12:53:12.387Z,2.17
2022-09-28T12:55:48.642Z,1.98
2022-09-28T12:58:25.930Z,1.95
2022-09-28T13:00:59.113Z,1.90
2022-09-28T13:03:41.095Z,2.08
2022-09-28T13:06:27.421Z,3.53
2022-09-28T13:09:05.193Z,2.03
2022-09-28T13:11:35.106Z,2.67
2022-09-28T13:14:20.754Z,2.30
2022-09-28T13:16:56.158Z,2.63
2022-09-28T13:19:32.837Z,2.90
2022-09-28T13:22:04.538Z,2.40
2022-09-28T13:24:35.739Z,2.45
2022-09-28T13:27:06.117Z,2.22
2022-09-28T13:29:35.135Z,2.05
2022-09-28T13:32:05.237Z,1.88
2022-09-28T13:34:35.228Z,1.95
2022-09-28T13:37:11.249Z,1.63
2022-09-28T13:39:51.925Z,1.92
2022-09-28T13:42:27.671Z,1.20
2022-09-28T13:45:04.460Z,1.63
2022-09-28T13:47:43.192Z,1.48
2022-09-28T13:50:20.145Z,1.65
2022-09-28T13:52:50.911Z,1.83
2022-09-28T13:55:25.823Z,1.40
2022-09-28T13:57:57.152Z,1.60
2022-09-28T14:00:28.858Z,1.08
2022-09-28T14:03:01.406Z,1.25
2022-09-28T14:05:42.661Z,1.60
2022-09-28T14:08:33.591Z,1.83
2022-09-28T14:11:16.660Z,1.80
2022-09-28T14:14:02.787Z,1.75
2022-09-28T14:16:32.423Z,1.80
2022-09-28T14:19:03.065Z,1.90
2022-09-28T14:21:41.743Z,1.70
2022-09-28T14:24:19.221Z,1.90
2022-09-28T14:27:01.383Z,2.27
2022-09-28T14:29:31.680Z,2.43
2022-09-28T14:32:00.589Z,2.87
2022-09-28T14:34:34.097Z,1.80
2022-09-28T14:37:21.720Z,1.70
2022-09-28T14:40:12.876Z,1.73
2022-09-28T14:42:41.344Z,1.50
2022-09-28T14:45:35.659Z,1.60
2022-09-28T14:48:13.921Z,2.43
2022-09-28T14:50:42.472Z,1.47
2022-09-28T14:53:14.621Z,1.67
2022-09-28T14:55:44.645Z,1.30
2022-09-28T14:58:17.226Z,1.90
2022-09-28T15:00:48.337Z,2.00
2022-09-28T15:03:26.215Z,1.70
2022-09-28T15:06:06.239Z,1.40
2022-09-28T15:08:38.718Z,1.30
2022-09-28T15:11:07.355Z,1.40
2022-09-28T15:13:36.263Z,1.00
2022-09-28T15:16:09.867Z,2.80
2022-09-28T15:18:50.246Z,1.23
2022-09-28T15:21:18.858Z,0.90
2022-09-28T15:23:50.842Z,0.80
2022-09-28T15:26:24.273Z,0.77
2022-09-28T15:28:52.620Z,0.83
2022-09-28T15:31:23.940Z,2.03
2022-09-28T15:34:10.127Z,1.10
2022-09-28T15:36:40.125Z,0.90
2022-09-28T15:39:16.947Z,1.20
2022-09-28T15:41:46.573Z,0.97
2022-09-28T15:44:29.058Z,0.80
2022-09-28T15:47:07.734Z,0.70
2022-09-28T15:49:39.151Z,1.40
2022-09-28T15:52:07.686Z,1.03
2022-09-28T15:54:41.081Z,0.97
2022-09-28T15:57:31.154Z,1.23
2022-09-28T16:00:02.161Z,0.90
2022-09-28T16:02:31.886Z,1.50
2022-09-28T16:05:00.830Z,1.00
2022-09-28T16:07:38.451Z,1.40
2022-09-28T16:10:27.554Z,1.17
2022-09-28T16:12:58.807Z,1.40
2022-09-28T16:15:29.060Z,1.40
2022-09-28T16:18:00.653Z,1.70
2022-09-28T16:20:33.014Z,2.50
2022-09-28T16:23:05.838Z,2.30
2022-09-28T16:25:37.312Z,1.97
2022-09-28T16:28:06.268Z,1.50
2022-09-28T16:30:35.365Z,1.83
2022-09-28T16:33:05.666Z,1.83
2022-09-28T16:35:34.472Z,2.40
2022-09-28T16:38:10.900Z,5.37
2022-09-28T16:40:44.269Z,6.47
2022-09-28T16:43:19.092Z,3.53
2022-09-28T16:45:47.442Z,4.30
2022-09-28T16:48:19.241Z,3.10
2022-09-28T16:50:47.470Z,4.43
2022-09-28T16:53:34.304Z,2.77
2022-09-28T16:56:02.696Z,3.10
2022-09-28T16:58:33.829Z,3.20
2022-09-28T17:01:02.959Z,4.60
2022-09-28T17:03:32.792Z,4.30
2022-09-28T17:06:00.995Z,3.10
2022-09-28T17:08:31.566Z,4.27
2022-09-28T17:11:14.926Z,5.10
2022-09-28T17:13:46.532Z,7.63
2022-09-28T17:16:15.876Z,5.70
2022-09-28T17:18:45.970Z,8.57
2022-09-28T17:21:18.452Z,3.90
2022-09-28T17:23:47.272Z,3.30
2022-09-28T17:26:19.745Z,3.60
2022-09-28T17:28:48.329Z,3.20
2022-09-28T17:31:28.428Z,3.10
2022-09-28T17:33:58.339Z,2.70
2022-09-28T17:36:31.219Z,2.80
2022-09-28T17:41:49.047Z,2.80
2022-09-28T17:44:21.912Z,2.70
2022-09-28T17:46:56.111Z,3.00
2022-09-28T17:49:29.081Z,3.30
2022-09-28T17:52:05.927Z,2.50
2022-09-28T17:54:37.864Z,2.67
2022-09-28T17:57:23.745Z,2.70
2022-09-28T17:59:55.127Z,2.10
2022-09-28T18:02:26.714Z,1.90
2022-09-28T18:04:59.310Z,2.00
2022-09-28T18:07:37.328Z,1.77
2022-09-28T18:10:09.524Z,2.10
2022-09-28T18:12:38.207Z,1.70
2022-09-28T18:15:09.273Z,2.00
2022-09-28T18:17:37.769Z,1.80
2022-09-28T18:20:08.855Z,1.80
2022-09-28T18:22:42.756Z,1.80
2022-09-28T18:25:11.906Z,1.77
2022-09-28T18:27:40.389Z,1.50
2022-09-28T18:30:12.451Z,1.60
2022-09-28T18:32:40.776Z,1.50
2022-09-28T18:35:11.298Z,1.50
2022-09-28T18:37:45.746Z,1.60
2022-09-28T18:40:17.015Z,1.63
2022-09-28T18:42:45.438Z,1.73
2022-09-28T18:45:14.268Z,1.70
2022-09-28T18:47:43.338Z,1.70
2022-09-28T18:50:15.424Z,1.80
2022-09-28T18:52:44.580Z,1.83
2022-09-28T18:55:13.494Z,1.50
2022-09-28T18:57:42.615Z,1.60
2022-09-28T19:00:14.134Z,1.80
2022-09-28T19:02:45.797Z,1.87
2022-09-28T19:05:21.678Z,2.10
2022-09-28T19:07:55.811Z,1.70
2022-09-28T19:10:27.172Z,1.57
2022-09-28T19:13:02.144Z,1.77
2022-09-28T19:15:33.828Z,1.50
2022-09-28T19:18:02.819Z,1.80
2022-09-28T19:20:40.454Z,1.60
2022-09-28T19:23:14.168Z,1.60
2022-09-28T19:25:44.826Z,1.90
2022-09-28T19:28:31.823Z,1.60
2022-09-28T19:31:03.940Z,1.90
2022-09-28T19:33:38.223Z,1.70
2022-09-28T19:36:09.012Z,1.40
2022-09-28T19:38:40.643Z,1.90
2022-09-28T19:41:12.880Z,1.90
2022-09-28T19:43:44.219Z,1.70
2022-09-28T19:46:17.676Z,2.00
2022-09-28T19:48:47.143Z,1.90
2022-09-28T19:51:22.192Z,1.93
2022-09-28T19:53:50.566Z,2.03
2022-09-28T19:56:18.838Z,1.70
2022-09-28T19:58:47.405Z,1.90
2022-09-28T20:01:16.488Z,2.20
2022-09-28T20:03:45.004Z,1.50
2022-09-28T20:06:17.322Z,1.80
2022-09-28T20:08:47.197Z,1.80
2022-09-28T20:11:15.513Z,1.90
2022-09-28T20:13:46.250Z,1.90
2022-09-28T20:16:15.676Z,1.87
2022-09-28T20:18:49.874Z,1.93
2022-09-28T20:21:20.180Z,1.70
2022-09-28T20:23:53.457Z,1.83
2022-09-28T20:26:21.799Z,1.50
2022-09-28T20:28:51.369Z,1.27
2022-09-28T20:31:21.124Z,1.37
2022-09-28T20:33:52.888Z,1.50
2022-09-28T20:36:22.494Z,1.77
2022-09-28T20:38:53.423Z,1.53
2022-09-28T20:41:22.917Z,1.63
2022-09-28T20:43:59.583Z,1.63
2022-09-28T20:46:30.715Z,2.23
2022-09-28T20:49:04.248Z,2.10
2022-09-28T20:51:33.843Z,1.70
2022-09-28T20:54:03.910Z,1.67
2022-09-28T20:56:37.733Z,1.47
2022-09-28T20:59:06.405Z,1.53
2022-09-28T21:01:34.994Z,1.53
2022-09-28T21:04:04.445Z,1.47
2022-09-28T21:06:33.537Z,1.47
2022-09-28T21:09:03.628Z,1.17
2022-09-28T21:11:35.539Z,1.50
2022-09-28T21:14:09.712Z,1.40
2022-09-28T21:16:38.524Z,1.60
2022-09-28T21:19:08.457Z,1.60
2022-09-28T21:21:36.712Z,1.80
2022-09-28T21:24:06.480Z,1.40
2022-09-28T21:26:39.351Z,1.63
2022-09-28T21:29:08.597Z,1.93
2022-09-28T21:31:39.653Z,1.83
2022-09-28T21:34:11.526Z,1.60
2022-09-28T21:36:52.529Z,1.77
2022-09-28T21:39:23.973Z,1.60
2022-09-28T21:41:54.577Z,1.70
2022-09-28T21:44:22.834Z,1.50
2022-09-28T21:46:51.080Z,1.73
2022-09-28T21:49:19.527Z,1.80
2022-09-28T21:51:47.790Z,1.70
2022-09-28T21:54:16.120Z,2.00
2022-09-28T21:56:46.378Z,2.00
2022-09-28T21:59:14.624Z,2.10
2022-09-28T22:01:44.231Z,2.27
2022-09-28T22:04:12.708Z,1.90
2022-09-28T22:06:40.960Z,2.00
2022-09-28T22:09:09.211Z,2.27
2022-09-28T22:11:37.410Z,2.27
2022-09-28T22:14:07.054Z,2.43
2022-09-28T22:16:35.305Z,2.00
2022-09-28T22:19:03.593Z,2.50
2022-09-28T22:21:33.342Z,2.40
2022-09-28T22:24:02.020Z,2.70
2022-09-28T22:26:31.633Z,2.53
2022-09-28T22:29:00.875Z,2.47
2022-09-28T22:31:31.480Z,2.97
2022-09-28T22:33:59.869Z,3.13
2022-09-28T22:36:28.132Z,2.80
2022-09-28T22:38:56.763Z,3.20
2022-09-28T22:41:25.309Z,3.20
2022-09-28T22:43:57.023Z,3.00
2022-09-28T22:46:26.436Z,3.00
2022-09-28T22:48:56.817Z,3.10
2022-09-28T22:51:25.833Z,2.87
2022-09-28T22:53:54.498Z,3.00
2022-09-28T22:56:22.810Z,3.20
2022-09-28T22:58:51.142Z,3.23
2022-09-28T23:01:20.994Z,3.10
2022-09-28T23:03:49.781Z,3.70
2022-09-28T23:06:22.503Z,3.43
2022-09-28T23:08:51.566Z,4.03
2022-09-28T23:11:20.300Z,4.10
2022-09-28T23:13:50.587Z,4.00
2022-09-28T23:16:18.982Z,5.10
2022-09-28T23:18:49.088Z,5.30
2022-09-28T23:21:24.328Z,4.70
2022-09-28T23:23:53.492Z,5.90
2022-09-28T23:26:23.790Z,5.30
2022-09-28T23:28:52.631Z,5.20
2022-09-28T23:31:23.073Z,6.00
2022-09-28T23:33:51.657Z,6.10
2022-09-28T23:36:21.307Z,6.67
2022-09-28T23:38:49.609Z,6.90
2022-09-28T23:41:17.876Z,7.07
2022-09-28T23:43:46.101Z,6.67
2022-09-28T23:46:19.674Z,6.60
2022-09-28T23:48:48.970Z,6.27
2022-09-28T23:51:17.201Z,6.77
2022-09-28T23:53:46.949Z,7.47
2022-09-28T23:56:15.507Z,7.40
2022-09-28T23:58:43.898Z,7.30
